sensor_id;sensor_type;location;lat;lon;timestamp;temperature;humidity
32215;DHT22;18708;53.124;23.190;2023-02-19T00:01:31;2.50;99.90
32215;DHT22;18708;53.124;23.190;2023-02-19T00:04:05;2.50;99.90
32215;DHT22;18708;53.124;23.190;2023-02-19T00:06:33;2.60;99.90
32215;DHT22;18708;53.124;23.190;2023-02-19T00:08:59;2.70;99.90
32215;DHT22;18708;53.124;23.190;2023-02-19T00:11:27;2.60;99.90
32215;DHT22;18708;53.124;23.190;2023-02-19T00:13:55;2.60;99.90
32215;DHT22;18708;53.124;23.190;2023-02-19T00:16:31;2.60;99.90
32215;DHT22;18708;53.124;23.190;2023-02-19T00:18:59;2.60;99.90
32215;DHT22;18708;53.124;23.190;2023-02-19T00:21:27;2.60;99.90
32215;DHT22;18708;53.124;23.190;2023-02-19T00:23:58;2.60;99.90
32215;DHT22;18708;53.124;23.190;2023-02-19T00:26:24;2.60;99.90
32215;DHT22;18708;53.124;23.190;2023-02-19T00:28:51;2.50;99.90
32215;DHT22;18708;53.124;23.190;2023-02-19T00:31:20;2.50;99.90
32215;DHT22;18708;53.124;23.190;2023-02-19T00:33:47;2.40;99.90
32215;DHT22;18708;53.124;23.190;2023-02-19T00:36:14;2.50;99.90
32215;DHT22;18708;53.124;23.190;2023-02-19T00:38:41;2.50;99.90
32215;DHT22;18708;53.124;23.190;2023-02-19T00:41:10;2.50;99.90
32215;DHT22;18708;53.124;23.190;2023-02-19T00:43:56;2.60;99.90
32215;DHT22;18708;53.124;23.190;2023-02-19T00:46:26;2.60;99.90
32215;DHT22;18708;53.124;23.190;2023-02-19T00:48:52;2.60;99.90
32215;DHT22;18708;53.124;23.190;2023-02-19T00:51:19;2.50;99.90
32215;DHT22;18708;53.124;23.190;2023-02-19T00:53:45;2.50;99.90
32215;DHT22;18708;53.124;23.190;2023-02-19T00:56:13;2.50;99.90
32215;DHT22;18708;53.124;23.190;2023-02-19T00:58:39;2.50;99.90
32215;DHT22;18708;53.124;23.190;2023-02-19T01:01:07;2.60;99.90
32215;DHT22;18708;53.124;23.190;2023-02-19T01:03:36;2.60;99.90
32215;DHT22;18708;53.124;23.190;2023-02-19T01:06:03;2.50;99.90
32215;DHT22;18708;53.124;23.190;2023-02-19T01:08:30;2.50;99.90
32215;DHT22;18708;53.124;23.190;2023-02-19T01:10:57;2.50;99.90
32215;DHT22;18708;53.124;23.190;2023-02-19T01:13:23;2.50;99.90
32215;DHT22;18708;53.124;23.190;2023-02-19T01:15:48;2.50;99.90
32215;DHT22;18708;53.124;23.190;2023-02-19T01:18:14;2.50;99.90
32215;DHT22;18708;53.124;23.190;2023-02-19T01:20:42;2.50;99.90
32215;DHT22;18708;53.124;23.190;2023-02-19T01:23:10;2.40;99.90
32215;DHT22;18708;53.124;23.190;2023-02-19T01:25:40;2.40;99.90
32215;DHT22;18708;53.124;23.190;2023-02-19T01:28:06;2.40;99.90
32215;DHT22;18708;53.124;23.190;2023-02-19T01:30:36;2.30;99.90
32215;DHT22;18708;53.124;23.190;2023-02-19T01:33:06;2.30;99.90
32215;DHT22;18708;53.124;23.190;2023-02-19T01:35:36;2.20;99.90
32215;DHT22;18708;53.124;23.190;2023-02-19T01:38:02;2.30;99.90
32215;DHT22;18708;53.124;23.190;2023-02-19T01:40:28;2.10;99.90
32215;DHT22;18708;53.124;23.190;2023-02-19T01:42:53;2.10;99.90
32215;DHT22;18708;53.124;23.190;2023-02-19T01:45:33;2.00;99.90
32215;DHT22;18708;53.124;23.190;2023-02-19T01:50:36;2.20;99.90
32215;DHT22;18708;53.124;23.190;2023-02-19T01:53:07;2.20;99.90
32215;DHT22;18708;53.124;23.190;2023-02-19T01:55:35;2.20;99.90
32215;DHT22;18708;53.124;23.190;2023-02-19T01:58:04;2.10;99.90
32215;DHT22;18708;53.124;23.190;2023-02-19T02:00:32;2.00;99.90
32215;DHT22;18708;53.124;23.190;2023-02-19T02:02:58;2.00;99.90
32215;DHT22;18708;53.124;23.190;2023-02-19T02:05:43;2.10;99.90
32215;DHT22;18708;53.124;23.190;2023-02-19T02:08:11;2.00;99.90
32215;DHT22;18708;53.124;23.190;2023-02-19T02:10:56;1.90;99.90
32215;DHT22;18708;53.124;23.190;2023-02-19T02:13:22;1.80;99.90
32215;DHT22;18708;53.124;23.190;2023-02-19T02:26:52;2.00;99.90
32215;DHT22;18708;53.124;23.190;2023-02-19T02:32:13;2.00;99.90
32215;DHT22;18708;53.124;23.190;2023-02-19T02:35:03;1.90;99.90
32215;DHT22;18708;53.124;23.190;2023-02-19T02:37:33;1.90;99.90
32215;DHT22;18708;53.124;23.190;2023-02-19T02:40:01;1.90;99.90
32215;DHT22;18708;53.124;23.190;2023-02-19T02:42:27;1.80;99.90
32215;DHT22;18708;53.124;23.190;2023-02-19T02:44:54;1.80;99.90
32215;DHT22;18708;53.124;23.190;2023-02-19T02:47:49;1.80;99.90
32215;DHT22;18708;53.124;23.190;2023-02-19T02:50:21;1.70;99.90
32215;DHT22;18708;53.124;23.190;2023-02-19T02:52:52;1.80;99.90
32215;DHT22;18708;53.124;23.190;2023-02-19T02:55:42;1.80;99.90
32215;DHT22;18708;53.124;23.190;2023-02-19T02:58:12;1.70;99.90
32215;DHT22;18708;53.124;23.190;2023-02-19T03:00:40;1.70;99.90
32215;DHT22;18708;53.124;23.190;2023-02-19T03:03:27;1.70;99.90
32215;DHT22;18708;53.124;23.190;2023-02-19T03:05:58;1.60;99.90
32215;DHT22;18708;53.124;23.190;2023-02-19T03:08:29;1.60;99.90
32215;DHT22;18708;53.124;23.190;2023-02-19T03:13:46;1.60;99.90
32215;DHT22;18708;53.124;23.190;2023-02-19T03:16:33;1.60;99.90
32215;DHT22;18708;53.124;23.190;2023-02-19T03:19:19;1.70;99.90
32215;DHT22;18708;53.124;23.190;2023-02-19T03:21:58;1.70;99.90
32215;DHT22;18708;53.124;23.190;2023-02-19T03:24:35;1.70;99.90
32215;DHT22;18708;53.124;23.190;2023-02-19T03:27:23;1.70;99.90
32215;DHT22;18708;53.124;23.190;2023-02-19T03:29:54;1.70;99.90
32215;DHT22;18708;53.124;23.190;2023-02-19T03:35:17;1.80;99.90
32215;DHT22;18708;53.124;23.190;2023-02-19T03:37:55;1.80;99.90
32215;DHT22;18708;53.124;23.190;2023-02-19T03:40:24;1.80;99.90
32215;DHT22;18708;53.124;23.190;2023-02-19T03:45:46;1.80;99.90
32215;DHT22;18708;53.124;23.190;2023-02-19T03:56:51;1.80;99.90
32215;DHT22;18708;53.124;23.190;2023-02-19T04:02:18;1.80;99.90
32215;DHT22;18708;53.124;23.190;2023-02-19T04:04:56;1.80;99.90
32215;DHT22;18708;53.124;23.190;2023-02-19T04:07:24;1.80;99.90
32215;DHT22;18708;53.124;23.190;2023-02-19T04:09:53;1.80;99.90
32215;DHT22;18708;53.124;23.190;2023-02-19T04:12:20;1.90;99.90
32215;DHT22;18708;53.124;23.190;2023-02-19T04:17:23;1.90;99.90
32215;DHT22;18708;53.124;23.190;2023-02-19T04:19:52;1.70;99.90
32215;DHT22;18708;53.124;23.190;2023-02-19T04:22:20;1.70;99.90
32215;DHT22;18708;53.124;23.190;2023-02-19T04:24:49;1.60;99.90
32215;DHT22;18708;53.124;23.190;2023-02-19T04:27:17;1.60;99.90
32215;DHT22;18708;53.124;23.190;2023-02-19T04:29:43;1.70;99.90
32215;DHT22;18708;53.124;23.190;2023-02-19T04:32:10;1.60;99.90
32215;DHT22;18708;53.124;23.190;2023-02-19T04:34:36;1.50;99.90
32215;DHT22;18708;53.124;23.190;2023-02-19T04:37:02;1.60;99.90
32215;DHT22;18708;53.124;23.190;2023-02-19T04:39:28;1.50;99.90
32215;DHT22;18708;53.124;23.190;2023-02-19T04:41:53;1.40;99.90
32215;DHT22;18708;53.124;23.190;2023-02-19T04:44:19;1.40;99.90
32215;DHT22;18708;53.124;23.190;2023-02-19T04:46:45;1.40;99.90
32215;DHT22;18708;53.124;23.190;2023-02-19T04:49:10;1.40;99.90
32215;DHT22;18708;53.124;23.190;2023-02-19T04:51:37;1.50;99.90
32215;DHT22;18708;53.124;23.190;2023-02-19T04:54:02;1.50;99.90
32215;DHT22;18708;53.124;23.190;2023-02-19T04:56:28;1.40;99.90
32215;DHT22;18708;53.124;23.190;2023-02-19T04:58:54;1.40;99.90
32215;DHT22;18708;53.124;23.190;2023-02-19T05:01:20;1.40;99.90
32215;DHT22;18708;53.124;23.190;2023-02-19T05:03:46;1.40;99.90
32215;DHT22;18708;53.124;23.190;2023-02-19T05:06:12;1.30;99.90
32215;DHT22;18708;53.124;23.190;2023-02-19T05:08:38;1.30;99.90
32215;DHT22;18708;53.124;23.190;2023-02-19T05:11:06;1.30;99.90
32215;DHT22;18708;53.124;23.190;2023-02-19T05:13:32;1.40;99.90
32215;DHT22;18708;53.124;23.190;2023-02-19T05:16:02;1.40;99.90
32215;DHT22;18708;53.124;23.190;2023-02-19T05:18:29;1.50;99.90
32215;DHT22;18708;53.124;23.190;2023-02-19T05:20:57;1.50;99.90
32215;DHT22;18708;53.124;23.190;2023-02-19T05:23:25;1.30;99.90
32215;DHT22;18708;53.124;23.190;2023-02-19T05:25:51;1.40;99.90
32215;DHT22;18708;53.124;23.190;2023-02-19T05:28:17;1.40;99.90
32215;DHT22;18708;53.124;23.190;2023-02-19T05:33:09;1.40;99.90
32215;DHT22;18708;53.124;23.190;2023-02-19T05:35:40;1.30;99.90
32215;DHT22;18708;53.124;23.190;2023-02-19T05:38:05;1.30;99.90
32215;DHT22;18708;53.124;23.190;2023-02-19T05:40:32;1.40;99.90
32215;DHT22;18708;53.124;23.190;2023-02-19T05:42:58;1.40;99.90
32215;DHT22;18708;53.124;23.190;2023-02-19T05:45:25;1.40;99.90
32215;DHT22;18708;53.124;23.190;2023-02-19T05:47:50;1.40;99.90
32215;DHT22;18708;53.124;23.190;2023-02-19T05:50:16;1.40;99.90
32215;DHT22;18708;53.124;23.190;2023-02-19T05:52:41;1.50;99.90
32215;DHT22;18708;53.124;23.190;2023-02-19T05:55:09;1.50;99.90
32215;DHT22;18708;53.124;23.190;2023-02-19T05:57:44;1.40;99.90
32215;DHT22;18708;53.124;23.190;2023-02-19T06:00:15;1.50;99.90
32215;DHT22;18708;53.124;23.190;2023-02-19T06:02:41;1.60;99.90
32215;DHT22;18708;53.124;23.190;2023-02-19T06:05:08;1.70;99.90
32215;DHT22;18708;53.124;23.190;2023-02-19T06:07:34;1.80;99.90
32215;DHT22;18708;53.124;23.190;2023-02-19T06:10:00;1.70;99.90
32215;DHT22;18708;53.124;23.190;2023-02-19T06:12:25;1.60;99.90
32215;DHT22;18708;53.124;23.190;2023-02-19T06:14:51;1.60;99.90
32215;DHT22;18708;53.124;23.190;2023-02-19T06:17:17;1.50;99.90
32215;DHT22;18708;53.124;23.190;2023-02-19T06:19:45;1.70;99.90
32215;DHT22;18708;53.124;23.190;2023-02-19T06:22:12;1.70;99.90
32215;DHT22;18708;53.124;23.190;2023-02-19T06:24:38;1.80;99.90
32215;DHT22;18708;53.124;23.190;2023-02-19T06:27:07;1.90;99.90
32215;DHT22;18708;53.124;23.190;2023-02-19T06:29:33;1.80;99.90
32215;DHT22;18708;53.124;23.190;2023-02-19T06:31:59;1.90;99.90
32215;DHT22;18708;53.124;23.190;2023-02-19T06:34:25;1.90;99.90
32215;DHT22;18708;53.124;23.190;2023-02-19T06:36:51;2.00;99.90
32215;DHT22;18708;53.124;23.190;2023-02-19T06:39:17;2.00;99.90
32215;DHT22;18708;53.124;23.190;2023-02-19T06:41:43;2.10;99.90
32215;DHT22;18708;53.124;23.190;2023-02-19T06:44:08;2.10;99.90
32215;DHT22;18708;53.124;23.190;2023-02-19T06:46:34;2.10;99.90
32215;DHT22;18708;53.124;23.190;2023-02-19T06:49:03;2.10;99.90
32215;DHT22;18708;53.124;23.190;2023-02-19T06:51:28;2.10;99.90
32215;DHT22;18708;53.124;23.190;2023-02-19T06:53:54;2.20;99.90
32215;DHT22;18708;53.124;23.190;2023-02-19T06:56:28;2.20;99.90
32215;DHT22;18708;53.124;23.190;2023-02-19T06:58:59;2.20;99.90
32215;DHT22;18708;53.124;23.190;2023-02-19T07:01:26;2.20;99.90
32215;DHT22;18708;53.124;23.190;2023-02-19T07:03:52;2.30;99.90
32215;DHT22;18708;53.124;23.190;2023-02-19T07:06:18;2.40;99.90
32215;DHT22;18708;53.124;23.190;2023-02-19T07:08:44;2.40;99.90
32215;DHT22;18708;53.124;23.190;2023-02-19T07:11:10;2.40;99.90
32215;DHT22;18708;53.124;23.190;2023-02-19T07:13:38;2.40;99.90
32215;DHT22;18708;53.124;23.190;2023-02-19T07:16:07;2.50;99.90
32215;DHT22;18708;53.124;23.190;2023-02-19T07:18:33;2.50;99.90
32215;DHT22;18708;53.124;23.190;2023-02-19T07:21:13;2.50;99.90
32215;DHT22;18708;53.124;23.190;2023-02-19T07:23:40;2.50;99.90
32215;DHT22;18708;53.124;23.190;2023-02-19T07:26:14;2.60;99.90
32215;DHT22;18708;53.124;23.190;2023-02-19T07:28:41;2.60;99.90
32215;DHT22;18708;53.124;23.190;2023-02-19T07:31:06;2.50;99.90
32215;DHT22;18708;53.124;23.190;2023-02-19T07:33:32;2.60;99.90
32215;DHT22;18708;53.124;23.190;2023-02-19T07:35:58;2.60;99.90
32215;DHT22;18708;53.124;23.190;2023-02-19T07:38:25;2.70;99.90
32215;DHT22;18708;53.124;23.190;2023-02-19T07:40:52;2.70;99.90
32215;DHT22;18708;53.124;23.190;2023-02-19T07:43:18;2.70;99.90
32215;DHT22;18708;53.124;23.190;2023-02-19T07:45:44;2.70;1.00
32215;DHT22;18708;53.124;23.190;2023-02-19T07:48:11;2.80;1.00
32215;DHT22;18708;53.124;23.190;2023-02-19T07:50:36;2.80;1.00
32215;DHT22;18708;53.124;23.190;2023-02-19T07:53:02;2.80;99.90
32215;DHT22;18708;53.124;23.190;2023-02-19T07:55:28;2.90;99.90
32215;DHT22;18708;53.124;23.190;2023-02-19T07:57:53;2.90;99.90
32215;DHT22;18708;53.124;23.190;2023-02-19T08:00:19;2.90;99.90
32215;DHT22;18708;53.124;23.190;2023-02-19T08:02:45;2.90;99.90
32215;DHT22;18708;53.124;23.190;2023-02-19T08:05:28;2.90;99.90
32215;DHT22;18708;53.124;23.190;2023-02-19T08:07:55;3.00;99.90
32215;DHT22;18708;53.124;23.190;2023-02-19T08:10:21;3.10;99.90
32215;DHT22;18708;53.124;23.190;2023-02-19T08:13:06;3.40;99.90
32215;DHT22;18708;53.124;23.190;2023-02-19T08:18:29;3.50;99.90
32215;DHT22;18708;53.124;23.190;2023-02-19T08:20:55;3.60;99.90
32215;DHT22;18708;53.124;23.190;2023-02-19T08:23:21;3.70;99.90
32215;DHT22;18708;53.124;23.190;2023-02-19T08:25:49;3.50;99.90
32215;DHT22;18708;53.124;23.190;2023-02-19T08:28:15;3.50;99.90
32215;DHT22;18708;53.124;23.190;2023-02-19T08:30:42;3.60;99.90
32215;DHT22;18708;53.124;23.190;2023-02-19T08:33:14;3.50;99.90
32215;DHT22;18708;53.124;23.190;2023-02-19T08:35:40;3.60;99.90
32215;DHT22;18708;53.124;23.190;2023-02-19T08:38:07;3.60;99.90
32215;DHT22;18708;53.124;23.190;2023-02-19T08:40:35;3.60;99.90
32215;DHT22;18708;53.124;23.190;2023-02-19T08:43:07;3.50;99.90
32215;DHT22;18708;53.124;23.190;2023-02-19T08:45:33;3.60;99.90
32215;DHT22;18708;53.124;23.190;2023-02-19T08:48:01;3.60;99.90
32215;DHT22;18708;53.124;23.190;2023-02-19T08:50:26;3.70;99.90
32215;DHT22;18708;53.124;23.190;2023-02-19T08:52:54;3.70;99.90
32215;DHT22;18708;53.124;23.190;2023-02-19T08:55:20;3.70;99.90
32215;DHT22;18708;53.124;23.190;2023-02-19T08:57:46;3.70;99.90
32215;DHT22;18708;53.124;23.190;2023-02-19T09:00:12;3.70;99.90
32215;DHT22;18708;53.124;23.190;2023-02-19T09:02:38;3.60;99.90
32215;DHT22;18708;53.124;23.190;2023-02-19T09:05:04;3.50;99.90
32215;DHT22;18708;53.124;23.190;2023-02-19T09:07:30;3.50;99.90
32215;DHT22;18708;53.124;23.190;2023-02-19T09:09:56;3.50;99.90
32215;DHT22;18708;53.124;23.190;2023-02-19T09:12:23;3.60;99.90
32215;DHT22;18708;53.124;23.190;2023-02-19T09:14:48;3.60;99.90
32215;DHT22;18708;53.124;23.190;2023-02-19T09:17:14;3.60;99.90
32215;DHT22;18708;53.124;23.190;2023-02-19T09:19:40;3.60;99.90
32215;DHT22;18708;53.124;23.190;2023-02-19T09:22:05;3.50;99.90
32215;DHT22;18708;53.124;23.190;2023-02-19T09:24:31;3.60;99.90
32215;DHT22;18708;53.124;23.190;2023-02-19T09:26:57;3.60;99.90
32215;DHT22;18708;53.124;23.190;2023-02-19T09:29:24;3.60;99.90
32215;DHT22;18708;53.124;23.190;2023-02-19T09:31:54;3.70;99.90
32215;DHT22;18708;53.124;23.190;2023-02-19T09:34:19;3.80;99.90
32215;DHT22;18708;53.124;23.190;2023-02-19T09:36:48;4.10;99.90
32215;DHT22;18708;53.124;23.190;2023-02-19T09:39:14;4.00;99.90
32215;DHT22;18708;53.124;23.190;2023-02-19T09:41:54;4.10;99.90
32215;DHT22;18708;53.124;23.190;2023-02-19T09:44:37;4.10;99.90
32215;DHT22;18708;53.124;23.190;2023-02-19T09:47:07;4.20;99.90
32215;DHT22;18708;53.124;23.190;2023-02-19T09:49:38;4.60;99.90
32215;DHT22;18708;53.124;23.190;2023-02-19T09:55:08;4.80;99.90
32215;DHT22;18708;53.124;23.190;2023-02-19T09:57:37;4.80;99.90
32215;DHT22;18708;53.124;23.190;2023-02-19T10:00:28;4.70;99.90
32215;DHT22;18708;53.124;23.190;2023-02-19T10:03:13;4.60;99.90
32215;DHT22;18708;53.124;23.190;2023-02-19T10:05:41;4.60;99.90
32215;DHT22;18708;53.124;23.190;2023-02-19T10:08:12;4.60;99.90
32215;DHT22;18708;53.124;23.190;2023-02-19T10:10:39;4.70;99.90
32215;DHT22;18708;53.124;23.190;2023-02-19T10:15:51;4.80;99.90
32215;DHT22;18708;53.124;23.190;2023-02-19T10:18:23;4.80;1.00
32215;DHT22;18708;53.124;23.190;2023-02-19T10:20:51;4.80;1.00
32215;DHT22;18708;53.124;23.190;2023-02-19T10:23:17;4.90;1.00
32215;DHT22;18708;53.124;23.190;2023-02-19T10:25:56;4.90;1.00
32215;DHT22;18708;53.124;23.190;2023-02-19T10:28:25;4.70;1.00
32215;DHT22;18708;53.124;23.190;2023-02-19T10:30:55;4.90;1.00
32215;DHT22;18708;53.124;23.190;2023-02-19T10:33:22;4.80;1.00
32215;DHT22;18708;53.124;23.190;2023-02-19T10:35:57;4.80;1.00
32215;DHT22;18708;53.124;23.190;2023-02-19T10:38:46;5.00;1.00
32215;DHT22;18708;53.124;23.190;2023-02-19T10:41:18;5.10;99.90
32215;DHT22;18708;53.124;23.190;2023-02-19T10:44:14;5.20;99.90
32215;DHT22;18708;53.124;23.190;2023-02-19T10:46:47;5.10;99.90
32215;DHT22;18708;53.124;23.190;2023-02-19T10:49:32;5.60;99.90
32215;DHT22;18708;53.124;23.190;2023-02-19T10:52:08;5.60;99.90
32215;DHT22;18708;53.124;23.190;2023-02-19T10:54:34;5.40;1.00
32215;DHT22;18708;53.124;23.190;2023-02-19T10:59:53;5.20;1.00
32215;DHT22;18708;53.124;23.190;2023-02-19T11:02:23;5.40;1.00
32215;DHT22;18708;53.124;23.190;2023-02-19T11:05:19;5.40;1.00
32215;DHT22;18708;53.124;23.190;2023-02-19T11:07:50;5.30;1.00
32215;DHT22;18708;53.124;23.190;2023-02-19T11:10:39;5.50;1.00
32215;DHT22;18708;53.124;23.190;2023-02-19T11:13:13;5.90;1.00
32215;DHT22;18708;53.124;23.190;2023-02-19T11:15:40;6.10;1.00
32215;DHT22;18708;53.124;23.190;2023-02-19T11:18:24;5.70;99.90
32215;DHT22;18708;53.124;23.190;2023-02-19T11:20:52;5.40;21.80
32215;DHT22;18708;53.124;23.190;2023-02-19T11:23:25;5.20;12.20
32215;DHT22;18708;53.124;23.190;2023-02-19T11:25:52;5.20;1.00
32215;DHT22;18708;53.124;23.190;2023-02-19T11:33:43;4.80;1.00
32215;DHT22;18708;53.124;23.190;2023-02-19T11:36:18;4.80;1.00
32215;DHT22;18708;53.124;23.190;2023-02-19T11:38:47;4.90;1.00
32215;DHT22;18708;53.124;23.190;2023-02-19T11:55:57;6.00;1.00
32215;DHT22;18708;53.124;23.190;2023-02-19T12:12:50;8.70;1.00
32215;DHT22;18708;53.124;23.190;2023-02-19T12:15:29;8.90;1.00
32215;DHT22;18708;53.124;23.190;2023-02-19T12:18:40;8.20;1.00
32215;DHT22;18708;53.124;23.190;2023-02-19T12:45:44;5.70;99.90
32215;DHT22;18708;53.124;23.190;2023-02-19T12:48:39;5.70;1.00
32215;DHT22;18708;53.124;23.190;2023-02-19T12:51:22;5.50;99.90
32215;DHT22;18708;53.124;23.190;2023-02-19T12:54:28;5.40;99.90
32215;DHT22;18708;53.124;23.190;2023-02-19T12:57:09;5.20;1.00
32215;DHT22;18708;53.124;23.190;2023-02-19T13:00:15;5.10;1.00
32215;DHT22;18708;53.124;23.190;2023-02-19T13:02:48;5.10;1.00
32215;DHT22;18708;53.124;23.190;2023-02-19T13:05:45;5.00;1.00
32215;DHT22;18708;53.124;23.190;2023-02-19T13:08:30;5.00;99.90
32215;DHT22;18708;53.124;23.190;2023-02-19T13:11:02;5.00;1.00
32215;DHT22;18708;53.124;23.190;2023-02-19T13:13:40;5.10;99.90
32215;DHT22;18708;53.124;23.190;2023-02-19T13:16:13;5.00;99.90
32215;DHT22;18708;53.124;23.190;2023-02-19T13:18:44;5.00;99.90
32215;DHT22;18708;53.124;23.190;2023-02-19T13:21:11;5.10;99.90
32215;DHT22;18708;53.124;23.190;2023-02-19T13:24:00;5.20;99.90
32215;DHT22;18708;53.124;23.190;2023-02-19T13:38:03;5.60;99.90
32215;DHT22;18708;53.124;23.190;2023-02-19T13:40:30;5.60;99.90
32215;DHT22;18708;53.124;23.190;2023-02-19T13:42:58;5.60;1.00
32215;DHT22;18708;53.124;23.190;2023-02-19T13:45:38;5.60;99.90
32215;DHT22;18708;53.124;23.190;2023-02-19T13:50:49;5.50;99.90
32215;DHT22;18708;53.124;23.190;2023-02-19T14:17:43;5.40;99.90
32215;DHT22;18708;53.124;23.190;2023-02-19T14:25:29;5.00;99.90
32215;DHT22;18708;53.124;23.190;2023-02-19T14:28:05;4.90;99.90
32215;DHT22;18708;53.124;23.190;2023-02-19T14:30:59;4.90;99.90
32215;DHT22;18708;53.124;23.190;2023-02-19T14:33:28;4.80;99.90
32215;DHT22;18708;53.124;23.190;2023-02-19T14:39:10;4.70;99.90
32215;DHT22;18708;53.124;23.190;2023-02-19T14:41:38;4.60;99.90
32215;DHT22;18708;53.124;23.190;2023-02-19T14:44:11;4.50;99.90
32215;DHT22;18708;53.124;23.190;2023-02-19T14:46:45;4.40;99.90
32215;DHT22;18708;53.124;23.190;2023-02-19T14:49:31;4.40;99.90
32215;DHT22;18708;53.124;23.190;2023-02-19T14:52:03;4.30;99.90
32215;DHT22;18708;53.124;23.190;2023-02-19T14:54:41;4.30;99.90
32215;DHT22;18708;53.124;23.190;2023-02-19T14:57:16;4.40;99.90
32215;DHT22;18708;53.124;23.190;2023-02-19T14:59:54;4.40;99.90
32215;DHT22;18708;53.124;23.190;2023-02-19T15:02:20;4.40;99.90
32215;DHT22;18708;53.124;23.190;2023-02-19T15:04:46;4.40;99.90
32215;DHT22;18708;53.124;23.190;2023-02-19T15:07:19;4.40;99.90
32215;DHT22;18708;53.124;23.190;2023-02-19T15:09:51;4.40;99.90
32215;DHT22;18708;53.124;23.190;2023-02-19T15:12:20;4.40;99.90
32215;DHT22;18708;53.124;23.190;2023-02-19T15:14:46;4.30;99.90
32215;DHT22;18708;53.124;23.190;2023-02-19T15:17:20;4.20;99.90
32215;DHT22;18708;53.124;23.190;2023-02-19T15:19:49;4.10;99.90
32215;DHT22;18708;53.124;23.190;2023-02-19T15:22:19;4.20;99.90
32215;DHT22;18708;53.124;23.190;2023-02-19T15:24:45;4.10;99.90
32215;DHT22;18708;53.124;23.190;2023-02-19T15:27:17;4.00;99.90
32215;DHT22;18708;53.124;23.190;2023-02-19T15:29:46;4.00;99.90
32215;DHT22;18708;53.124;23.190;2023-02-19T15:32:17;4.00;99.90
32215;DHT22;18708;53.124;23.190;2023-02-19T15:34:53;3.90;99.90
32215;DHT22;18708;53.124;23.190;2023-02-19T15:37:19;3.70;99.90
32215;DHT22;18708;53.124;23.190;2023-02-19T15:39:47;3.70;99.90
32215;DHT22;18708;53.124;23.190;2023-02-19T15:42:31;3.80;99.90
32215;DHT22;18708;53.124;23.190;2023-02-19T15:45:08;3.70;99.90
32215;DHT22;18708;53.124;23.190;2023-02-19T15:47:54;3.60;99.90
32215;DHT22;18708;53.124;23.190;2023-02-19T16:03:24;3.20;99.90
32215;DHT22;18708;53.124;23.190;2023-02-19T16:08:34;3.20;99.90
32215;DHT22;18708;53.124;23.190;2023-02-19T16:11:06;3.10;99.90
32215;DHT22;18708;53.124;23.190;2023-02-19T16:13:33;3.00;99.90
32215;DHT22;18708;53.124;23.190;2023-02-19T16:16:05;2.90;99.90
32215;DHT22;18708;53.124;23.190;2023-02-19T16:18:31;2.90;99.90
32215;DHT22;18708;53.124;23.190;2023-02-19T16:20:57;2.90;99.90
32215;DHT22;18708;53.124;23.190;2023-02-19T16:23:23;2.90;99.90
32215;DHT22;18708;53.124;23.190;2023-02-19T16:26:00;2.90;99.90
32215;DHT22;18708;53.124;23.190;2023-02-19T16:28:28;2.80;99.90
32215;DHT22;18708;53.124;23.190;2023-02-19T16:31:05;2.70;99.90
32215;DHT22;18708;53.124;23.190;2023-02-19T16:36:23;2.80;99.90
32215;DHT22;18708;53.124;23.190;2023-02-19T16:41:29;2.60;99.90
32215;DHT22;18708;53.124;23.190;2023-02-19T16:43:54;2.60;99.90
32215;DHT22;18708;53.124;23.190;2023-02-19T16:46:20;2.60;99.90
32215;DHT22;18708;53.124;23.190;2023-02-19T16:48:46;2.60;99.90
32215;DHT22;18708;53.124;23.190;2023-02-19T16:51:25;2.70;99.90
32215;DHT22;18708;53.124;23.190;2023-02-19T16:53:51;2.60;99.90
32215;DHT22;18708;53.124;23.190;2023-02-19T16:56:18;2.60;99.90
32215;DHT22;18708;53.124;23.190;2023-02-19T16:58:49;2.60;99.90
32215;DHT22;18708;53.124;23.190;2023-02-19T17:01:16;2.60;99.90
32215;DHT22;18708;53.124;23.190;2023-02-19T17:03:42;2.60;99.90
32215;DHT22;18708;53.124;23.190;2023-02-19T17:06:08;2.60;99.90
32215;DHT22;18708;53.124;23.190;2023-02-19T17:08:42;2.60;99.90
32215;DHT22;18708;53.124;23.190;2023-02-19T17:11:15;2.70;99.90
32215;DHT22;18708;53.124;23.190;2023-02-19T17:13:44;2.60;99.90
32215;DHT22;18708;53.124;23.190;2023-02-19T17:16:21;2.60;99.90
32215;DHT22;18708;53.124;23.190;2023-02-19T17:18:48;2.50;99.90
32215;DHT22;18708;53.124;23.190;2023-02-19T17:21:24;2.50;99.90
32215;DHT22;18708;53.124;23.190;2023-02-19T17:23:51;2.50;99.90
32215;DHT22;18708;53.124;23.190;2023-02-19T17:26:24;2.40;99.90
32215;DHT22;18708;53.124;23.190;2023-02-19T17:28:50;2.40;99.90
32215;DHT22;18708;53.124;23.190;2023-02-19T17:31:16;2.30;99.90
32215;DHT22;18708;53.124;23.190;2023-02-19T17:33:42;2.30;99.90
32215;DHT22;18708;53.124;23.190;2023-02-19T17:36:19;2.30;99.90
32215;DHT22;18708;53.124;23.190;2023-02-19T17:38:45;2.20;99.90
32215;DHT22;18708;53.124;23.190;2023-02-19T17:41:10;2.20;99.90
32215;DHT22;18708;53.124;23.190;2023-02-19T17:43:36;2.10;99.90
32215;DHT22;18708;53.124;23.190;2023-02-19T17:46:02;2.20;99.90
32215;DHT22;18708;53.124;23.190;2023-02-19T17:48:28;2.20;99.90
32215;DHT22;18708;53.124;23.190;2023-02-19T17:50:54;2.30;99.90
32215;DHT22;18708;53.124;23.190;2023-02-19T17:53:19;2.20;99.90
32215;DHT22;18708;53.124;23.190;2023-02-19T17:55:48;2.20;99.90
32215;DHT22;18708;53.124;23.190;2023-02-19T17:58:13;2.20;99.90
32215;DHT22;18708;53.124;23.190;2023-02-19T18:00:39;2.10;99.90
32215;DHT22;18708;53.124;23.190;2023-02-19T18:03:05;2.20;99.90
32215;DHT22;18708;53.124;23.190;2023-02-19T18:05:32;2.10;99.90
32215;DHT22;18708;53.124;23.190;2023-02-19T18:08:00;2.00;99.90
32215;DHT22;18708;53.124;23.190;2023-02-19T18:10:25;2.00;99.90
32215;DHT22;18708;53.124;23.190;2023-02-19T18:12:51;2.00;99.90
32215;DHT22;18708;53.124;23.190;2023-02-19T18:15:22;2.00;99.90
32215;DHT22;18708;53.124;23.190;2023-02-19T18:17:49;2.00;99.90
32215;DHT22;18708;53.124;23.190;2023-02-19T18:20:20;2.00;99.90
32215;DHT22;18708;53.124;23.190;2023-02-19T18:22:46;2.00;99.90
32215;DHT22;18708;53.124;23.190;2023-02-19T18:25:14;2.00;99.90
32215;DHT22;18708;53.124;23.190;2023-02-19T18:27:40;1.80;99.90
32215;DHT22;18708;53.124;23.190;2023-02-19T18:30:06;1.80;99.90
32215;DHT22;18708;53.124;23.190;2023-02-19T18:32:32;1.80;99.90
32215;DHT22;18708;53.124;23.190;2023-02-19T18:34:58;1.80;99.90
32215;DHT22;18708;53.124;23.190;2023-02-19T18:37:25;1.70;99.90
32215;DHT22;18708;53.124;23.190;2023-02-19T18:39:52;1.60;99.90
32215;DHT22;18708;53.124;23.190;2023-02-19T18:42:20;1.60;99.90
32215;DHT22;18708;53.124;23.190;2023-02-19T18:44:47;1.60;99.90
32215;DHT22;18708;53.124;23.190;2023-02-19T18:47:15;1.60;99.90
32215;DHT22;18708;53.124;23.190;2023-02-19T18:49:55;1.60;99.90
32215;DHT22;18708;53.124;23.190;2023-02-19T18:52:22;1.50;99.90